Rosewood, Indiana
Current Conditions -  °F | °C
As of 3:56 AM on Friday 24 Oct 2014 (Local Time) from KSDF Reporting Station
Broken Clouds Broken Clouds  
Wind Chill: 45°   Ceiling: 18000
Heat Index: 48°   Visibility: 9mi
Dew Point: 44°   Wind: 6mph
Humidity: 86%   Direction: NA
Pressure: 30.12"   Gusts: NA
Location:  38.1042°N, 85.9595°W
Report Text: KSDF 240756Z VRB05KT 9SM BKN180 09/07 A3012 RMK AO2 SLP198 T00890067
Loading
Personal Weather Stations






























Interactive Weather Map
Tropical Storm Tracking
New forecast layout! Learn more

10-Day Weather Forecast

Advertisements
Track Severe Weather on mobile